Time;durP1;ratioP1;P1;durP2;ratioP2;P2;SDS_P1;SDS_P2;PMS_P1;PMS_P2;Temp;Humidity;BMP_temperature;BMP_pressure;BME280_temperature;BME280_humidity;BME280_pressure;Samples;Min_cycle;Max_cycle;Signal;HPM_P1;HPM_P2
2023/02/12 00:00:58;;;;;;;19.50;16.23;;;;;;;6.14;62.12;97435.91;6067157;23;20216;-83
2023/02/12 00:03:24;;;;;;;20.53;16.07;;;;;;;6.13;62.35;97429.16;6067791;23;20181;-83
2023/02/12 00:05:52;;;;;;;21.50;17.00;;;;;;;6.16;61.93;97435.78;6068215;23;20277;-83
2023/02/12 00:08:18;;;;;;;22.47;17.20;;;;;;;6.18;62.26;97432.19;6053144;23;20219;-80
2023/02/12 00:10:45;;;;;;;22.90;17.63;;;;;;;6.15;62.45;97434.16;6069017;23;20216;-80
2023/02/12 00:13:13;;;;;;;21.03;17.80;;;;;;;6.18;61.72;97434.75;6069824;23;20252;-80
2023/02/12 00:15:40;;;;;;;20.83;16.97;;;;;;;6.21;62.29;97436.28;6070000;23;20205;-80
2023/02/12 00:18:07;;;;;;;21.80;16.27;;;;;;;6.22;62.01;97430.25;6071164;23;20181;-80
2023/02/12 00:20:33;;;;;;;19.57;15.70;;;;;;;6.22;62.06;97427.69;6069997;23;20213;-81
2023/02/12 00:23:01;;;;;;;25.90;19.73;;;;;;;6.22;62.00;97427.69;6070314;23;20606;-81
2023/02/12 00:25:27;;;;;;;19.87;16.07;;;;;;;6.16;62.46;97431.47;6070616;23;20215;-81
2023/02/12 00:27:54;;;;;;;20.50;16.37;;;;;;;6.15;62.31;97427.31;6071381;23;20188;-81
2023/02/12 00:30:21;;;;;;;18.10;15.17;;;;;;;6.15;61.87;97429.88;6070797;23;20223;-80
2023/02/12 00:32:47;;;;;;;22.53;16.17;;;;;;;6.16;62.07;97431.47;6054282;23;20208;-80
2023/02/12 00:35:14;;;;;;;24.60;16.13;;;;;;;6.20;61.73;97434.66;6070293;23;20204;-81
2023/02/12 00:37:40;;;;;;;19.97;16.47;;;;;;;6.16;62.64;97428.91;6069385;23;20201;-80
2023/02/12 00:40:11;;;;;;;19.57;15.70;;;;;;;6.13;62.46;97429.16;6069213;23;20223;-80
2023/02/12 00:42:38;;;;;;;22.17;16.33;;;;;;;6.15;62.60;97432.44;6070433;23;20161;-81
2023/02/12 00:45:04;;;;;;;19.83;16.17;;;;;;;6.17;62.15;97422.06;6069537;23;20215;-80
2023/02/12 00:47:31;;;;;;;21.13;16.30;;;;;;;6.18;62.22;97426.25;6069988;23;20211;-80
2023/02/12 00:50:00;;;;;;;19.83;15.70;;;;;;;6.17;62.68;97424.63;6070222;23;20827;-80
2023/02/12 00:52:28;;;;;;;19.57;15.53;;;;;;;6.17;62.54;97424.63;6069684;23;20204;-80
2023/02/12 00:54:55;;;;;;;19.50;16.10;;;;;;;6.18;62.07;97426.25;6069156;23;20212;-81
2023/02/12 00:57:23;;;;;;;20.03;16.00;;;;;;;6.18;62.42;97428.81;6071904;23;20201;-81
2023/02/12 00:59:49;;;;;;;21.67;16.80;;;;;;;6.13;62.49;97441.94;6070191;23;20205;-81
2023/02/12 01:02:16;;;;;;;18.37;15.53;;;;;;;6.15;62.41;97437.53;6069681;23;20180;-81
2023/02/12 01:04:43;;;;;;;20.00;16.63;;;;;;;6.16;62.69;97440.88;6069437;23;20264;-80
2023/02/12 01:07:10;;;;;;;19.63;15.53;;;;;;;6.13;62.46;97434.25;6069978;23;20228;-81
2023/02/12 01:09:36;;;;;;;20.10;16.17;;;;;;;6.09;62.88;97430.28;6069109;23;20177;-81
2023/02/12 01:12:03;;;;;;;22.87;16.33;;;;;;;6.11;62.78;97427.63;6069742;23;20200;-81
2023/02/12 01:14:31;;;;;;;20.17;15.93;;;;;;;6.14;62.84;97432.53;6069477;23;20204;-81
2023/02/12 01:16:57;;;;;;;18.17;14.77;;;;;;;6.15;62.81;97424.75;6040388;23;20212;-81
2023/02/12 01:19:24;;;;;;;22.23;16.87;;;;;;;6.18;62.35;97432.19;6068696;23;20177;-80
2023/02/12 01:22:03;;;;;;;18.53;15.43;;;;;;;6.19;62.64;97433.84;6070260;23;20242;-80
2023/02/12 01:24:29;;;;;;;18.07;15.77;;;;;;;6.18;62.73;97419.41;6068863;23;20192;-80
2023/02/12 01:26:55;;;;;;;19.43;16.00;;;;;;;6.18;62.86;97416.03;6053451;23;20212;-80
2023/02/12 01:29:22;;;;;;;18.63;15.87;;;;;;;6.18;62.77;97429.63;6068085;23;20729;-80
2023/02/12 01:31:50;;;;;;;22.30;16.00;;;;;;;6.18;63.11;97426.25;6070135;23;20207;-80
2023/02/12 01:34:16;;;;;;;19.27;16.10;;;;;;;6.20;62.91;97435.47;6069865;23;20193;-81
2023/02/12 01:36:43;;;;;;;19.83;16.20;;;;;;;6.19;62.75;97443.25;6068285;23;20213;-81
2023/02/12 01:39:11;;;;;;;20.10;16.07;;;;;;;6.20;63.07;97435.47;6055331;23;20739;-81
2023/02/12 01:41:41;;;;;;;19.07;16.33;;;;;;;6.19;63.30;97438.94;6068915;23;20208;-80
2023/02/12 01:44:12;;;;;;;20.53;16.20;;;;;;;6.21;63.16;97441.41;6069680;23;20373;-80
2023/02/12 01:46:39;;;;;;;20.07;16.20;;;;;;;6.19;63.18;97446.63;6069360;23;20239;-81
2023/02/12 01:49:09;;;;;;;21.47;16.50;;;;;;;6.21;62.83;97446.53;6069130;23;20205;-81
2023/02/12 01:51:36;;;;;;;19.23;16.40;;;;;;;6.15;63.60;97441.84;6067948;23;20216;-80
2023/02/12 01:54:07;;;;;;;22.67;16.53;;;;;;;6.16;63.13;97440.88;6068645;23;20181;-81
2023/02/12 01:56:34;;;;;;;19.87;16.23;;;;;;;6.12;63.09;97437.75;6066074;23;20208;-81
2023/02/12 01:59:01;;;;;;;21.03;15.40;;;;;;;6.04;63.98;97445.09;6067970;23;20184;-80
2023/02/12 02:01:29;;;;;;;21.33;15.53;;;;;;;6.05;63.56;97440.81;6066885;23;20216;-81
2023/02/12 02:04:00;;;;;;;20.17;16.00;;;;;;;6.08;63.31;97427.81;6067172;23;20192;-81
2023/02/12 02:06:34;;;;;;;21.07;16.43;;;;;;;6.04;63.77;97428.94;6067325;23;20599;-81
2023/02/12 02:09:01;;;;;;;21.23;16.60;;;;;;;6.08;63.75;97441.41;6067330;23;20396;-81
2023/02/12 02:17:06;;;;;;;21.47;16.50;;;;;;;6.05;63.43;97436.50;6067937;23;20203;-81
2023/02/12 02:19:50;;;;;;;19.73;15.83;;;;;;;5.99;63.57;97433.53;6069752;23;20546;-81
2023/02/12 02:22:34;;;;;;;19.67;15.77;;;;;;;6.00;64.04;97430.06;6057395;23;20256;-80
2023/02/12 02:25:27;;;;;;;19.77;15.70;;;;;;;6.01;63.91;97424.84;6072186;23;20204;-81
2023/02/12 02:28:06;;;;;;;19.60;15.00;;;;;;;6.02;63.44;97429.03;6017155;23;20213;-81
2023/02/12 02:30:44;;;;;;;19.80;15.37;;;;;;;5.99;63.17;97433.53;6072600;23;20215;-81
2023/02/12 02:33:19;;;;;;;17.60;14.73;;;;;;;5.94;63.13;97425.38;6074112;23;20213;-81
2023/02/12 02:35:53;;;;;;;15.73;13.27;;;;;;;5.91;63.18;97426.41;6074201;23;20219;-80
2023/02/12 02:38:25;;;;;;;18.27;14.80;;;;;;;5.86;63.26;97419.00;6076330;23;20176;-80
2023/02/12 02:40:57;;;;;;;18.80;14.60;;;;;;;5.89;63.16;97423.13;6076190;23;20487;-80
2023/02/12 02:43:29;;;;;;;16.43;14.10;;;;;;;5.87;63.27;97419.81;6059946;23;20212;-80
2023/02/12 02:46:03;;;;;;;17.60;14.27;;;;;;;5.84;63.22;97423.38;6074074;23;20219;-81
2023/02/12 02:48:33;;;;;;;18.77;14.80;;;;;;;5.85;63.61;97421.66;6074602;23;20165;-81
2023/02/12 02:51:04;;;;;;;19.50;14.50;;;;;;;5.85;63.58;97413.97;6074140;23;20209;-80
2023/02/12 02:53:34;;;;;;;18.80;14.93;;;;;;;5.86;63.26;97416.44;6073647;23;20567;-80
2023/02/12 02:56:06;;;;;;;15.77;14.07;;;;;;;5.80;63.79;97414.28;6074151;23;20219;-81
2023/02/12 02:58:36;;;;;;;19.03;14.70;;;;;;;5.79;63.50;97409.25;6074572;23;20172;-81
2023/02/12 03:01:08;;;;;;;17.83;14.70;;;;;;;5.80;63.83;97403.22;6073474;23;20204;-81
2023/02/12 03:03:40;;;;;;;17.73;14.27;;;;;;;5.78;63.54;97410.19;6073554;23;20635;-80
2023/02/12 03:06:10;;;;;;;15.70;13.83;;;;;;;5.71;64.26;97414.91;6073966;23;20223;-80
2023/02/12 03:08:42;;;;;;;18.23;14.60;;;;;;;5.74;63.73;97409.59;6074607;23;20180;-81
2023/02/12 03:11:14;;;;;;;17.20;14.13;;;;;;;5.79;63.93;97422.88;6072747;23;20219;-80
2023/02/12 03:13:46;;;;;;;20.37;15.07;;;;;;;5.83;63.83;97434.53;6073672;23;20233;-80
2023/02/12 03:16:20;;;;;;;19.20;14.30;;;;;;;5.82;63.69;97426.97;6072235;23;20224;-80
2023/02/12 03:18:52;;;;;;;18.87;14.77;;;;;;;5.84;63.79;97425.94;6073724;23;20188;-81
2023/02/12 03:21:33;;;;;;;16.50;14.30;;;;;;;5.88;63.97;97429.13;6073165;23;20217;-81
2023/02/12 03:24:07;;;;;;;18.57;14.07;;;;;;;5.88;63.81;97424.84;6073869;23;20165;-81
2023/02/12 03:26:40;;;;;;;17.87;15.40;;;;;;;5.93;63.79;97439.06;6072618;23;20213;-81
2023/02/12 03:29:07;;;;;;;19.07;14.63;;;;;;;5.94;63.81;97438.97;6072850;23;20165;-80
2023/02/12 03:31:50;;;;;;;18.77;14.33;;;;;;;5.91;63.97;97444.28;6073985;23;20224;-81
2023/02/12 03:34:27;;;;;;;18.33;15.20;;;;;;;5.94;63.92;97438.16;6073719;23;20181;-81
2023/02/12 03:36:58;;;;;;;19.57;15.10;;;;;;;5.93;64.04;97444.19;6072854;23;20196;-80
2023/02/12 03:39:30;;;;;;;18.47;14.57;;;;;;;5.93;63.70;97441.63;6072342;23;20613;-81
2023/02/12 03:42:04;;;;;;;18.67;14.10;;;;;;;5.96;63.84;97441.44;6072772;23;20625;-80
2023/02/12 03:44:44;;;;;;;19.93;14.63;;;;;;;5.94;64.38;97433.03;6073614;23;20164;-80
2023/02/12 03:47:20;;;;;;;17.37;14.90;;;;;;;5.91;64.74;97439.19;6057979;23;20216;-81
2023/02/12 03:49:53;;;;;;;19.03;14.67;;;;;;;5.92;64.59;97440.00;6072287;23;20687;-80
2023/02/12 03:52:20;;;;;;;19.83;14.73;;;;;;;5.92;64.53;97432.31;6072640;23;20655;-81
2023/02/12 03:54:46;;;;;;;18.27;14.53;;;;;;;5.90;64.57;97434.97;6073359;23;20695;-80
2023/02/12 03:57:17;;;;;;;19.57;14.70;;;;;;;5.90;64.77;97440.09;6072136;23;20201;-80
2023/02/12 03:59:44;;;;;;;17.77;15.17;;;;;;;5.89;65.32;97441.84;6071787;23;20212;-81
2023/02/12 04:02:12;;;;;;;19.93;15.40;;;;;;;5.87;65.22;97435.97;6072896;23;20188;-81
2023/02/12 04:04:39;;;;;;;18.47;15.00;;;;;;;5.88;65.08;97445.31;6073488;23;20600;-81
2023/02/12 04:07:06;;;;;;;18.00;14.63;;;;;;;5.91;64.90;97451.97;6073062;23;20204;-81
2023/02/12 04:09:32;;;;;;;19.70;15.40;;;;;;;5.89;65.25;97444.38;6073214;23;20236;-81
2023/02/12 04:12:14;;;;;;;20.23;14.87;;;;;;;5.89;65.72;97454.63;6072337;23;20525;-80
2023/02/12 04:14:46;;;;;;;20.23;15.23;;;;;;;5.93;65.50;97460.34;6072409;23;20197;-81
2023/02/12 04:17:21;;;;;;;16.70;13.97;;;;;;;5.92;65.40;97458.72;6072553;23;20205;-81
2023/02/12 04:20:02;;;;;;;22.03;16.17;;;;;;;5.92;65.39;97458.72;6072161;23;20212;-81
2023/02/12 04:22:41;;;;;;;16.63;14.47;;;;;;;5.93;65.91;97455.22;6072578;23;20165;-81
2023/02/12 04:25:19;;;;;;;18.57;14.83;;;;;;;5.93;65.68;97460.34;6071724;23;20200;-81
2023/02/12 04:27:54;;;;;;;20.40;14.87;;;;;;;5.92;66.49;97460.44;6070715;23;20211;-81
2023/02/12 04:30:24;;;;;;;18.00;14.43;;;;;;;5.89;66.49;97467.41;6071820;23;20211;-81
2023/02/12 04:32:54;;;;;;;19.23;14.23;;;;;;;5.89;66.41;97469.13;6072695;23;20197;-80
2023/02/12 04:35:25;;;;;;;16.97;14.60;;;;;;;5.87;66.43;97464.09;6071465;23;20219;-81
2023/02/12 04:37:57;;;;;;;18.47;14.37;;;;;;;5.91;66.15;97469.03;6057307;23;20243;-80
2023/02/12 04:40:24;;;;;;;17.53;13.97;;;;;;;5.93;66.12;97469.75;6071984;23;20204;-81
2023/02/12 04:42:53;;;;;;;20.60;15.13;;;;;;;5.93;66.14;97468.03;6072201;23;20185;-81
2023/02/12 04:45:25;;;;;;;18.20;14.50;;;;;;;5.94;65.83;97466.28;6072538;23;20209;-81
2023/02/12 04:47:54;;;;;;;19.20;15.20;;;;;;;5.95;66.19;97476.41;6042692;23;20607;-80
2023/02/12 04:50:20;;;;;;;17.30;14.80;;;;;;;5.94;66.38;97479.06;6071227;23;20220;-80
2023/02/12 04:52:47;;;;;;;19.57;15.67;;;;;;;5.95;66.44;97473.84;6072215;23;20220;-81
2023/02/12 04:55:14;;;;;;;18.77;14.83;;;;;;;5.92;66.21;97475.78;6071502;23;20211;-81
2023/02/12 04:57:40;;;;;;;16.90;13.20;;;;;;;5.94;66.34;97479.06;6072129;23;20569;-81
2023/02/12 05:00:13;;;;;;;19.10;14.37;;;;;;;5.95;66.50;97473.03;6069596;23;20212;-81
2023/02/12 05:02:39;;;;;;;20.77;14.73;;;;;;;5.95;66.88;97468.75;6056369;23;20227;-80
2023/02/12 05:05:08;;;;;;;16.90;13.93;;;;;;;5.97;66.72;97473.72;6069769;23;20208;-81
2023/02/12 05:07:34;;;;;;;19.97;15.43;;;;;;;5.97;67.27;97471.97;6071098;23;20196;-80
2023/02/12 05:10:01;;;;;;;18.07;13.97;;;;;;;5.93;67.57;97470.56;6070559;23;20237;-80
2023/02/12 05:12:27;;;;;;;20.27;15.57;;;;;;;5.92;67.80;97473.22;6054884;23;20261;-80
2023/02/12 05:14:54;;;;;;;18.13;15.00;;;;;;;5.93;67.56;97480.81;6070171;23;20209;-81
2023/02/12 05:17:21;;;;;;;18.43;14.30;;;;;;;5.92;67.27;97486.00;6071102;23;20204;-81
2023/02/12 05:19:48;;;;;;;17.50;14.83;;;;;;;5.93;67.48;97483.34;6071158;23;20692;-81
2023/02/12 05:22:16;;;;;;;17.60;14.47;;;;;;;5.92;67.54;97491.13;6071686;23;20188;-81
2023/02/12 05:24:42;;;;;;;18.13;15.20;;;;;;;5.93;67.70;97490.22;6070201;23;20881;-80
2023/02/12 05:27:09;;;;;;;19.37;14.63;;;;;;;5.92;67.56;97484.28;6069565;23;20205;-80
2023/02/12 05:29:36;;;;;;;18.60;15.03;;;;;;;5.95;67.51;97490.94;6069955;23;20180;-80
2023/02/12 05:32:02;;;;;;;17.93;14.10;;;;;;;5.96;67.31;97492.56;6054675;23;20525;-80
2023/02/12 05:34:29;;;;;;;19.13;14.93;;;;;;;5.96;67.42;97495.13;6069431;23;20236;-80
2023/02/12 05:36:55;;;;;;;18.37;14.93;;;;;;;5.95;67.47;97508.81;6071256;23;20204;-80
2023/02/12 05:39:24;;;;;;;18.27;13.93;;;;;;;5.97;67.28;97506.97;6069535;23;20177;-80
2023/02/12 05:41:50;;;;;;;18.97;14.90;;;;;;;5.98;66.70;97511.16;6070768;23;20188;-81
2023/02/12 05:44:16;;;;;;;18.83;14.93;;;;;;;5.97;67.07;97502.66;6070517;23;20540;-81
2023/02/12 05:46:43;;;;;;;18.20;14.70;;;;;;;5.94;67.08;97507.19;6069544;23;20212;-80
2023/02/12 05:49:10;;;;;;;18.37;14.50;;;;;;;5.95;67.10;97501.16;6070309;23;20184;-81
2023/02/12 05:51:39;;;;;;;18.83;14.60;;;;;;;5.92;67.08;97504.72;6069515;23;20676;-81
2023/02/12 05:54:07;;;;;;;18.60;14.67;;;;;;;5.88;67.29;97509.22;6039934;23;20205;-81
2023/02/12 05:56:36;;;;;;;13.33;11.00;;;;;;;6.11;88.73;97506.91;6067410;23;20755;-81
2023/02/12 05:59:05;;;;;;;19.53;14.93;;;;;;;6.28;73.00;97501.47;6072972;23;20204;-80
2023/02/12 06:01:34;;;;;;;21.43;14.87;;;;;;;6.26;69.23;97499.94;6071353;23;20573;-80
2023/02/12 06:04:01;;;;;;;19.63;14.73;;;;;;;6.19;68.30;97507.19;6071032;23;20549;-80
2023/02/12 06:06:29;;;;;;;19.50;14.97;;;;;;;6.13;68.50;97503.31;6070132;23;20212;-80
2023/02/12 06:08:56;;;;;;;20.97;15.57;;;;;;;6.12;68.23;97506.78;6071884;23;20183;-80
2023/02/12 06:11:23;;;;;;;20.73;15.00;;;;;;;6.05;69.20;97502.16;6070083;23;20218;-81
2023/02/12 06:13:51;;;;;;;18.73;15.37;;;;;;;6.02;69.67;97515.16;6056615;23;20739;-80
2023/02/12 06:16:19;;;;;;;21.37;16.20;;;;;;;6.01;69.48;97514.34;6070197;23;20212;-80
2023/02/12 06:18:46;;;;;;;21.63;16.73;;;;;;;6.02;69.97;97507.50;6072157;23;20274;-81
2023/02/12 06:21:12;;;;;;;27.90;19.20;;;;;;;5.94;75.24;97510.56;6070889;23;20208;-80
2023/02/12 06:23:39;;;;;;;24.67;18.77;;;;;;;5.89;75.69;97518.53;6071496;23;20348;-80
2023/02/12 06:26:05;;;;;;;25.37;18.20;;;;;;;5.85;75.84;97518.78;6070545;23;20270;-80
2023/02/12 06:28:32;;;;;;;26.10;17.90;;;;;;;5.80;76.81;97520.81;6071395;23;20180;-81
2023/02/12 06:30:59;;;;;;;24.77;18.50;;;;;;;5.80;76.79;97526.75;6066849;23;20704;-81
2023/02/12 06:33:26;;;;;;;26.77;19.43;;;;;;;5.81;77.61;97532.69;6072510;23;20201;-81
2023/02/12 06:35:52;;;;;;;26.13;19.10;;;;;;;5.77;77.94;97529.50;6071987;23;20208;-80
2023/02/12 06:38:19;;;;;;;27.23;18.37;;;;;;;5.79;78.78;97534.50;6072542;23;20193;-81
2023/02/12 06:40:45;;;;;;;26.17;18.33;;;;;;;5.78;78.83;97533.69;6070393;23;20208;-81
2023/02/12 06:43:11;;;;;;;28.83;19.63;;;;;;;5.81;78.62;97535.22;6071089;23;20181;-81
2023/02/12 06:45:38;;;;;;;30.70;19.10;;;;;;;5.78;79.39;97533.69;6070423;23;20208;-81
2023/02/12 06:48:06;;;;;;;30.23;20.40;;;;;;;5.79;80.34;97537.88;6070737;23;20185;-81
2023/02/12 06:50:33;;;;;;;28.03;21.17;;;;;;;5.65;83.84;97543.06;6070297;23;20213;-81
2023/02/12 06:52:59;;;;;;;30.73;19.87;;;;;;;5.62;82.40;97550.09;6071306;23;20188;-80
2023/02/12 06:55:26;;;;;;;31.40;20.83;;;;;;;5.64;82.82;97545.72;6070211;23;20217;-81
2023/02/12 06:57:52;;;;;;;28.60;20.20;;;;;;;5.65;82.32;97543.06;6071893;23;20200;-81
2023/02/12 07:00:19;;;;;;;29.30;21.87;;;;;;;5.64;82.86;97540.59;6069425;23;20212;-81
2023/02/12 07:02:52;;;;;;;30.63;20.53;;;;;;;5.64;83.19;97541.44;6070601;23;20196;-81
2023/02/12 07:05:23;;;;;;;28.77;20.73;;;;;;;5.66;84.32;97538.78;6071671;23;20204;-81
2023/02/12 07:07:49;;;;;;;27.73;19.73;;;;;;;5.66;84.16;97541.34;6073248;23;20542;-81
2023/02/12 07:10:16;;;;;;;32.57;20.90;;;;;;;5.67;85.08;97548.09;6071508;23;20243;-81
2023/02/12 07:12:43;;;;;;;32.30;21.47;;;;;;;5.69;84.52;97544.53;6072681;23;20708;-83
2023/02/12 07:15:12;;;;;;;30.33;20.97;;;;;;;5.74;84.23;97539.94;6073652;23;20417;-83
2023/02/12 07:17:38;;;;;;;29.23;21.17;;;;;;;5.78;84.17;97537.97;6073100;23;20514;-83
2023/02/12 07:20:06;;;;;;;33.27;21.23;;;;;;;5.78;84.58;97543.91;6070898;23;20204;-83
2023/02/12 07:22:36;;;;;;;35.77;21.67;;;;;;;5.78;85.00;97543.09;6071566;23;20202;-83
2023/02/12 07:25:03;;;;;;;32.33;23.27;;;;;;;5.77;85.02;97547.38;6073439;23;20540;-84
2023/02/12 07:27:29;;;;;;;33.13;21.20;;;;;;;5.81;84.77;97540.34;6072071;23;20215;-83
2023/02/12 07:29:56;;;;;;;34.40;22.00;;;;;;;5.84;84.17;97543.53;6071998;23;20620;-84
2023/02/12 07:32:22;;;;;;;30.03;22.27;;;;;;;5.81;85.07;97536.06;6072353;23;20177;-83
2023/02/12 07:34:49;;;;;;;32.37;21.87;;;;;;;5.84;84.50;97532.47;6070245;23;20220;-83
2023/02/12 07:37:15;;;;;;;31.93;21.80;;;;;;;5.90;83.72;97534.69;6069955;23;20205;-85
2023/02/12 07:39:43;;;;;;;33.17;21.80;;;;;;;5.93;83.82;97537.03;6072409;23;20585;-83
2023/02/12 07:42:12;;;;;;;33.60;22.80;;;;;;;5.87;84.53;97533.13;6071318;23;20236;-81
2023/02/12 07:44:39;;;;;;;30.90;22.17;;;;;;;5.83;84.94;97531.66;6070933;23;20223;-81
2023/02/12 07:47:05;;;;;;;33.03;21.77;;;;;;;5.73;85.90;97529.81;6067911;23;20569;-81
2023/02/12 07:49:32;;;;;;;34.47;22.47;;;;;;;5.79;86.00;97527.66;6070026;23;20180;-81
2023/02/12 07:51:58;;;;;;;31.27;22.40;;;;;;;5.89;85.53;97523.63;6070915;23;20180;-81
2023/02/12 07:54:25;;;;;;;35.77;23.20;;;;;;;5.96;85.06;97516.41;6070760;23;20207;-81
2023/02/12 07:56:53;;;;;;;36.73;23.30;;;;;;;6.05;83.59;97520.88;6071162;23;20264;-81
2023/02/12 07:59:20;;;;;;;32.37;22.50;;;;;;;6.14;83.13;97524.59;6071322;23;20184;-81
2023/02/12 08:01:48;;;;;;;32.00;22.17;;;;;;;6.21;82.36;97524.06;6055733;23;20209;-81
2023/02/12 08:04:18;;;;;;;35.47;22.73;;;;;;;6.29;82.52;97523.56;6071385;23;20181;-81
2023/02/12 08:06:47;;;;;;;32.20;23.07;;;;;;;6.35;81.68;97533.38;6070953;23;20200;-81
2023/02/12 08:09:16;;;;;;;35.13;23.40;;;;;;;6.38;81.67;97530.63;6072112;23;20173;-81
2023/02/12 08:11:46;;;;;;;33.23;22.33;;;;;;;6.29;81.63;97525.31;6069994;23;20216;-81
2023/02/12 08:14:18;;;;;;;42.13;26.50;;;;;;;6.17;84.04;97532.88;6070258;23;20287;-81
2023/02/12 08:16:47;;;;;;;34.47;24.07;;;;;;;6.13;84.17;97534.00;6071759;23;20208;-81
2023/02/12 08:19:13;;;;;;;33.27;23.53;;;;;;;6.16;83.20;97533.78;6056728;23;20276;-81
2023/02/12 08:21:40;;;;;;;30.80;21.87;;;;;;;6.16;83.23;97526.09;6071376;23;20604;-81
2023/02/12 08:24:07;;;;;;;31.07;21.57;;;;;;;6.14;83.69;97527.97;6071230;23;20177;-82
2023/02/12 08:26:35;;;;;;;31.70;22.23;;;;;;;6.17;83.46;97532.03;6069981;23;20209;-81
2023/02/12 08:29:04;;;;;;;32.77;22.37;;;;;;;6.17;83.35;97534.59;6070022;23;20534;-81
2023/02/12 08:31:34;;;;;;;33.30;22.17;;;;;;;6.03;85.03;97525.28;6071250;23;20213;-81
2023/02/12 08:34:01;;;;;;;34.53;22.17;;;;;;;6.06;84.38;97535.31;6071670;23;20201;-81
2023/02/12 08:36:30;;;;;;;29.07;22.23;;;;;;;6.06;84.50;97530.22;6071298;23;20221;-81
2023/02/12 08:38:58;;;;;;;32.23;23.00;;;;;;;6.03;84.47;97530.41;6070921;23;20177;-81
2023/02/12 08:41:27;;;;;;;34.63;23.30;;;;;;;6.12;83.75;97527.25;6071412;23;20215;-81
2023/02/12 08:43:55;;;;;;;31.33;21.87;;;;;;;6.16;83.86;97526.09;6013579;23;20227;-82
2023/02/12 08:46:24;;;;;;;32.70;22.40;;;;;;;6.22;83.75;97525.72;6061198;23;20221;-81
2023/02/12 08:48:54;;;;;;;31.07;21.40;;;;;;;6.30;83.48;97530.34;6071965;23;20244;-81
2023/02/12 08:51:23;;;;;;;28.47;20.63;;;;;;;6.34;83.37;97529.22;6070687;23;20215;-84
2023/02/12 08:53:53;;;;;;;32.33;21.27;;;;;;;6.35;83.13;97528.25;6071864;23;20181;-81
2023/02/12 08:56:20;;;;;;;31.33;21.20;;;;;;;6.31;84.95;97526.03;6070946;23;20592;-81
2023/02/12 08:58:47;;;;;;;31.23;21.33;;;;;;;6.38;84.54;97528.06;6056184;23;20209;-81
2023/02/12 09:01:16;;;;;;;28.13;20.57;;;;;;;6.48;83.17;97523.16;6070251;23;20209;-83
2023/02/12 09:03:43;;;;;;;28.57;20.63;;;;;;;6.56;83.14;97524.25;6071534;23;20177;-83
2023/02/12 09:06:11;;;;;;;30.80;20.40;;;;;;;6.64;82.63;97518.63;6069866;23;20217;-83
2023/02/12 09:08:39;;;;;;;28.37;18.90;;;;;;;6.71;82.41;97526.72;6070400;23;20195;-83
2023/02/12 09:11:07;;;;;;;22.13;16.30;;;;;;;6.77;81.98;97519.44;6069586;23;20216;-80
2023/02/12 09:13:34;;;;;;;26.83;18.50;;;;;;;6.66;84.31;97528.78;6070040;23;20711;-81
2023/02/12 09:16:08;;;;;;;25.50;18.20;;;;;;;6.76;82.86;97525.47;6069002;23;20268;-81
2023/02/12 09:18:34;;;;;;;24.33;17.57;;;;;;;6.86;82.59;97528.22;6070875;23;20169;-81
2023/02/12 09:21:02;;;;;;;23.77;17.47;;;;;;;6.93;82.50;97526.88;6068844;23;20216;-81
2023/02/12 09:23:31;;;;;;;26.20;17.43;;;;;;;6.93;82.65;97526.88;6054519;23;20213;-81
2023/02/12 09:25:57;;;;;;;26.43;17.67;;;;;;;6.94;82.47;97534.44;6069639;23;20208;-81
2023/02/12 09:28:24;;;;;;;27.37;19.10;;;;;;;6.97;82.36;97532.59;6069295;23;20185;-81
2023/02/12 09:30:51;;;;;;;29.50;19.07;;;;;;;6.93;82.57;97532.00;6069446;23;20415;-81
2023/02/12 09:33:17;;;;;;;29.43;19.00;;;;;;;6.97;82.81;97533.41;6040444;23;20707;-81
2023/02/12 09:35:44;;;;;;;25.50;18.67;;;;;;;7.06;81.98;97535.34;6056179;23;20707;-81
2023/02/12 09:38:10;;;;;;;27.10;20.07;;;;;;;7.04;84.91;97532.06;6069392;23;20184;-81
2023/02/12 09:40:46;;;;;;;30.97;19.57;;;;;;;7.00;88.79;97535.78;6057542;23;20216;-81
2023/02/12 09:43:18;;;;;;;46.90;37.27;;;;;;;7.03;85.49;97533.00;6068511;23;20168;-81
2023/02/12 09:45:53;;;;;;;121.87;83.77;;;;;;;7.03;86.15;97533.00;6068973;23;20205;-81
2023/02/12 09:48:35;;;;;;;40.03;29.20;;;;;;;7.07;84.79;97529.31;6069845;23;20643;-82
2023/02/12 09:51:07;;;;;;;26.03;18.57;;;;;;;7.04;85.18;97529.53;6067821;23;20569;-82
2023/02/12 09:53:37;;;;;;;27.93;19.37;;;;;;;7.19;83.93;97533.56;6069474;23;20172;-82
2023/02/12 09:56:11;;;;;;;26.03;17.40;;;;;;;7.30;83.56;97529.44;6068751;23;20240;-81
2023/02/12 09:58:44;;;;;;;23.47;17.27;;;;;;;7.27;83.75;97533.84;6053280;23;20216;-82
2023/02/12 10:01:12;;;;;;;22.40;17.27;;;;;;;7.28;83.72;97527.81;6067658;23;20215;-82
2023/02/12 10:03:39;;;;;;;20.57;15.70;;;;;;;7.20;83.90;97532.63;6068206;23;20180;-82
2023/02/12 10:06:19;;;;;;;18.37;13.77;;;;;;;7.11;84.25;97535.03;6070265;23;20212;-81
2023/02/12 10:09:11;;;;;;;20.63;14.03;;;;;;;7.16;84.10;97531.22;6070923;23;20161;-81
2023/02/12 10:11:55;;;;;;;16.93;12.63;;;;;;;7.32;83.26;97530.94;6070882;23;20219;-81
2023/02/12 10:14:40;;;;;;;12.90;6.43;;;;;;;7.76;96.33;97535.47;6027237;23;20260;-83
2023/02/12 10:17:19;;;;;;;10.87;6.67;;;;;;;8.25;93.59;97531.91;6064704;23;20197;-84
2023/02/12 10:20:06;;;;;;;9.87;7.40;;;;;;;8.38;80.53;97536.94;6064416;23;20208;-84
2023/02/12 10:22:43;;;;;;;11.10;8.20;;;;;;;8.39;77.87;97536.03;6068983;23;20172;-81
2023/02/12 10:25:23;;;;;;;9.87;7.30;;;;;;;8.20;76.65;97533.97;6070177;23;20231;-84
2023/02/12 10:27:54;;;;;;;8.40;6.93;;;;;;;8.26;77.33;97525.84;6071055;23;20196;-81
2023/02/12 10:30:24;;;;;;;18.20;14.50;;;;;;;8.28;76.98;97529.88;6070323;23;20635;-81
2023/02/12 10:32:54;;;;;;;32.97;24.30;;;;;;;8.40;76.60;97530.78;6070293;23;20180;-81
2023/02/12 10:35:22;;;;;;;24.90;19.67;;;;;;;8.54;76.17;97534.88;6070079;23;20213;-81
2023/02/12 10:37:55;;;;;;;9.50;8.13;;;;;;;8.63;74.95;97531.63;6069226;23;20196;-81
2023/02/12 10:40:27;;;;;;;5.37;4.57;;;;;;;8.77;74.42;97528.00;6071285;23;20215;-82
2023/02/12 10:42:56;;;;;;;7.07;5.67;;;;;;;8.82;73.67;97525.88;6069213;23;20165;-81
2023/02/12 10:45:27;;;;;;;6.07;5.40;;;;;;;8.90;73.52;97519.22;6070027;23;20208;-81
2023/02/12 10:48:07;;;;;;;10.77;8.07;;;;;;;8.92;72.39;97519.91;6070408;23;20203;-82
2023/02/12 10:50:44;;;;;;;15.97;10.93;;;;;;;9.02;72.51;97522.59;6069233;23;20559;-81
2023/02/12 10:53:21;;;;;;;14.73;10.37;;;;;;;9.07;72.31;97522.22;6071153;23;20165;-82
2023/02/12 10:55:48;;;;;;;6.13;5.30;;;;;;;9.27;71.08;97527.44;6069469;23;20292;-81
2023/02/12 10:58:23;;;;;;;6.60;5.03;;;;;;;9.37;69.76;97521.59;6054846;23;20208;-81
2023/02/12 11:00:57;;;;;;;6.43;4.83;;;;;;;9.43;70.23;97519.34;6072921;23;20208;-81
2023/02/12 11:03:32;;;;;;;5.47;4.67;;;;;;;9.46;70.25;97520.84;6032285;23;20185;-81
2023/02/12 11:06:12;;;;;;;5.17;4.27;;;;;;;9.54;69.60;97514.16;6057254;23;20287;-81
2023/02/12 11:08:39;;;;;;;5.30;4.00;;;;;;;9.59;69.20;97521.53;6071648;23;20169;-81
2023/02/12 11:11:11;;;;;;;4.00;3.60;;;;;;;9.74;69.08;97515.16;6071748;23;20209;-81
2023/02/12 11:13:44;;;;;;;5.33;3.87;;;;;;;10.10;68.28;97513.91;6056104;23;20273;-81
2023/02/12 11:16:11;;;;;;;4.03;3.50;;;;;;;10.34;67.16;97513.69;6071193;23;20212;-81
2023/02/12 11:18:39;;;;;;;2.63;2.43;;;;;;;10.28;66.17;97511.59;6053879;23;20685;-81
2023/02/12 11:21:07;;;;;;;3.23;2.70;;;;;;;10.05;66.02;97510.88;6069577;23;20259;-82
2023/02/12 11:23:36;;;;;;;2.93;2.67;;;;;;;9.82;66.86;97507.59;6070403;23;20236;-82
2023/02/12 11:26:06;;;;;;;4.17;2.53;;;;;;;9.67;67.50;97506.28;6069844;23;20217;-81
2023/02/12 11:28:34;;;;;;;2.10;1.90;;;;;;;9.58;67.50;97507.84;6069551;23;20169;-81
2023/02/12 11:31:17;;;;;;;2.20;1.67;;;;;;;9.66;67.85;97504.63;6070299;23;20213;-82
2023/02/12 11:33:44;;;;;;;1.60;1.43;;;;;;;9.44;66.92;97502.16;6068958;23;20179;-81
2023/02/12 11:36:19;;;;;;;1.50;1.40;;;;;;;9.38;67.59;97503.47;6068948;23;20212;-81
2023/02/12 11:38:50;;;;;;;1.30;1.20;;;;;;;9.30;67.36;97500.69;6070320;23;20164;-81
2023/02/12 11:41:27;;;;;;;1.43;1.30;;;;;;;9.32;67.66;97504.78;6068337;23;20209;-81
2023/02/12 11:43:54;;;;;;;11.87;8.93;;;;;;;9.32;67.11;97497.06;6070768;23;20165;-81